Kezdőlap
METAR-TAF:

METAR-TAF

Repülőterek :

Batam, Indonézia

földrajzi szélesség: 01-07-15N, földrajzi hosszúság: 104-07-07E, magasság: 38 m

Jelenlegi meteorológiai megfigyelések

A jelentés 33 perccel ezelõtt készült, 15:00 UTC
Szélcsend
Hőmérséklet 26°C
Páratartalom 94%
Légköri nyomás 1014 hPa
Látótávolság 10 km, vagy több
Kevés felhő 1400 lábon

METAR: WIDD 011500Z 00000KT 9999 FEW014 26/25 Q1014 NOSIG

Idő: 22:33 (15:33 UTC)

Előrejelzés

A jelentés 4 órával és 33 perccel ezelõtt készült, 11:00 UTC
Az előrejelzés 01-én 12 óra UTC és 02-én 12 óra UTC között érvényes
Keleti szél 4 kt
Látótávolság 10 km, vagy több
Szórványos felhőzet 1400 lábon

TAF: WIDD 011100Z 0112/0212 10004KT 9999 SCT014

Meteorológiai megfigyelések és előrejelzések több, mint 4000 repülőtéren (METAR és TAF jelentéseket).

A térképen piros és sárga pontok jelzik az elérhető meteorológiai állomásokat.

Mozgassa az egeret a pont fölött, hogy megjelenjen az állomás neve.

Azután kattintson az időjárási megfigyelések és előrejelzések megtekintéséhez.

A térkép megváltoztatása: kattintson a fekete keresztel jelölt zöld gombra ráközelítéshez, a vonallal jelölt zöld gombra távolításhoz, vagy a zöld nyilakra a szomszédos térképek eléréséhez.


METAR-TAF: